sensor_id;sensor_type;location;lat;lon;timestamp;P1;durP1;ratioP1;P2;durP2;ratioP2
11986;SDS011;6053;51.382;6.768;2023-03-01T00:01:50;1.67;;;1.67;;
11986;SDS011;6053;51.382;6.768;2023-03-01T00:04:19;1.70;;;1.60;;
11986;SDS011;6053;51.382;6.768;2023-03-01T00:06:47;1.67;;;1.67;;
11986;SDS011;6053;51.382;6.768;2023-03-01T00:09:16;1.70;;;1.60;;
11986;SDS011;6053;51.382;6.768;2023-03-01T00:11:45;1.83;;;1.73;;
11986;SDS011;6053;51.382;6.768;2023-03-01T00:14:15;1.77;;;1.67;;
11986;SDS011;6053;51.382;6.768;2023-03-01T00:16:46;2.00;;;1.90;;
11986;SDS011;6053;51.382;6.768;2023-03-01T00:19:15;1.45;;;1.45;;
11986;SDS011;6053;51.382;6.768;2023-03-01T00:21:45;1.60;;;1.50;;
11986;SDS011;6053;51.382;6.768;2023-03-01T00:24:14;1.67;;;1.67;;
11986;SDS011;6053;51.382;6.768;2023-03-01T00:26:43;2.00;;;1.90;;
11986;SDS011;6053;51.382;6.768;2023-03-01T00:29:12;2.10;;;2.00;;
11986;SDS011;6053;51.382;6.768;2023-03-01T00:31:42;2.10;;;2.00;;
11986;SDS011;6053;51.382;6.768;2023-03-01T00:34:11;1.80;;;1.73;;
11986;SDS011;6053;51.382;6.768;2023-03-01T00:36:40;1.92;;;1.83;;
11986;SDS011;6053;51.382;6.768;2023-03-01T00:39:09;1.50;;;1.50;;
11986;SDS011;6053;51.382;6.768;2023-03-01T00:41:40;1.50;;;1.50;;
11986;SDS011;6053;51.382;6.768;2023-03-01T00:44:09;1.77;;;1.77;;
11986;SDS011;6053;51.382;6.768;2023-03-01T00:46:39;2.07;;;2.00;;
11986;SDS011;6053;51.382;6.768;2023-03-01T00:49:08;1.42;;;1.40;;
11986;SDS011;6053;51.382;6.768;2023-03-01T00:51:36;2.00;;;1.90;;
11986;SDS011;6053;51.382;6.768;2023-03-01T00:54:07;1.83;;;1.83;;
11986;SDS011;6053;51.382;6.768;2023-03-01T00:56:36;1.85;;;1.75;;
11986;SDS011;6053;51.382;6.768;2023-03-01T00:59:05;1.90;;;1.80;;
11986;SDS011;6053;51.382;6.768;2023-03-01T01:01:34;2.10;;;2.00;;
11986;SDS011;6053;51.382;6.768;2023-03-01T01:04:05;1.90;;;1.80;;
11986;SDS011;6053;51.382;6.768;2023-03-01T01:06:36;2.20;;;2.10;;
11986;SDS011;6053;51.382;6.768;2023-03-01T01:09:09;2.20;;;2.10;;
11986;SDS011;6053;51.382;6.768;2023-03-01T01:11:43;2.28;;;2.17;;
11986;SDS011;6053;51.382;6.768;2023-03-01T01:14:13;1.67;;;1.63;;
11986;SDS011;6053;51.382;6.768;2023-03-01T01:16:42;1.92;;;1.90;;
11986;SDS011;6053;51.382;6.768;2023-03-01T01:19:12;1.85;;;1.85;;
11986;SDS011;6053;51.382;6.768;2023-03-01T01:21:42;1.73;;;1.73;;
11986;SDS011;6053;51.382;6.768;2023-03-01T01:24:11;2.08;;;1.98;;
11986;SDS011;6053;51.382;6.768;2023-03-01T01:26:40;1.92;;;1.83;;
11986;SDS011;6053;51.382;6.768;2023-03-01T01:29:09;1.63;;;1.63;;
11986;SDS011;6053;51.382;6.768;2023-03-01T01:31:39;2.13;;;2.03;;
11986;SDS011;6053;51.382;6.768;2023-03-01T01:34:12;1.60;;;1.60;;
11986;SDS011;6053;51.382;6.768;2023-03-01T01:36:43;2.00;;;1.90;;
11986;SDS011;6053;51.382;6.768;2023-03-01T01:39:15;1.87;;;1.80;;
11986;SDS011;6053;51.382;6.768;2023-03-01T01:41:44;1.60;;;1.60;;
11986;SDS011;6053;51.382;6.768;2023-03-01T01:44:15;2.00;;;1.90;;
11986;SDS011;6053;51.382;6.768;2023-03-01T01:46:46;1.67;;;1.67;;
11986;SDS011;6053;51.382;6.768;2023-03-01T01:49:22;2.10;;;2.00;;
11986;SDS011;6053;51.382;6.768;2023-03-01T01:51:55;1.80;;;1.80;;
11986;SDS011;6053;51.382;6.768;2023-03-01T01:54:35;2.00;;;1.90;;
11986;SDS011;6053;51.382;6.768;2023-03-01T01:57:10;1.73;;;1.73;;
11986;SDS011;6053;51.382;6.768;2023-03-01T01:59:43;2.15;;;2.05;;
11986;SDS011;6053;51.382;6.768;2023-03-01T02:02:16;2.80;;;2.70;;
11986;SDS011;6053;51.382;6.768;2023-03-01T02:04:47;1.50;;;1.50;;
11986;SDS011;6053;51.382;6.768;2023-03-01T02:07:20;1.90;;;1.80;;
11986;SDS011;6053;51.382;6.768;2023-03-01T02:09:51;1.80;;;1.80;;
11986;SDS011;6053;51.382;6.768;2023-03-01T02:12:21;2.97;;;1.90;;
11986;SDS011;6053;51.382;6.768;2023-03-01T02:14:52;1.90;;;1.80;;
11986;SDS011;6053;51.382;6.768;2023-03-01T02:17:20;2.15;;;2.03;;
11986;SDS011;6053;51.382;6.768;2023-03-01T02:19:55;1.98;;;1.92;;
11986;SDS011;6053;51.382;6.768;2023-03-01T02:22:35;1.90;;;1.80;;
11986;SDS011;6053;51.382;6.768;2023-03-01T02:25:07;1.90;;;1.80;;
11986;SDS011;6053;51.382;6.768;2023-03-01T02:27:48;1.90;;;1.80;;
11986;SDS011;6053;51.382;6.768;2023-03-01T02:30:23;2.00;;;1.90;;
11986;SDS011;6053;51.382;6.768;2023-03-01T02:32:54;1.80;;;1.70;;
11986;SDS011;6053;51.382;6.768;2023-03-01T02:35:29;1.57;;;1.57;;
11986;SDS011;6053;51.382;6.768;2023-03-01T02:38:00;1.85;;;1.83;;
11986;SDS011;6053;51.382;6.768;2023-03-01T02:40:30;1.92;;;1.83;;
11986;SDS011;6053;51.382;6.768;2023-03-01T02:43:02;1.60;;;1.60;;
11986;SDS011;6053;51.382;6.768;2023-03-01T02:45:36;1.83;;;1.83;;
11986;SDS011;6053;51.382;6.768;2023-03-01T02:48:10;2.00;;;1.90;;
11986;SDS011;6053;51.382;6.768;2023-03-01T02:50:44;1.58;;;1.58;;
11986;SDS011;6053;51.382;6.768;2023-03-01T02:53:27;2.13;;;2.03;;
11986;SDS011;6053;51.382;6.768;2023-03-01T02:56:00;2.23;;;2.13;;
11986;SDS011;6053;51.382;6.768;2023-03-01T02:58:29;2.00;;;1.90;;
11986;SDS011;6053;51.382;6.768;2023-03-01T03:00:59;1.75;;;1.75;;
11986;SDS011;6053;51.382;6.768;2023-03-01T03:07:16;2.10;;;2.00;;
11986;SDS011;6053;51.382;6.768;2023-03-01T03:09:44;3.17;;;2.87;;
11986;SDS011;6053;51.382;6.768;2023-03-01T03:12:13;1.90;;;1.90;;
11986;SDS011;6053;51.382;6.768;2023-03-01T03:14:42;2.10;;;2.00;;
11986;SDS011;6053;51.382;6.768;2023-03-01T03:17:12;1.95;;;1.85;;
11986;SDS011;6053;51.382;6.768;2023-03-01T03:19:41;1.90;;;1.80;;
11986;SDS011;6053;51.382;6.768;2023-03-01T03:22:11;2.05;;;1.95;;
11986;SDS011;6053;51.382;6.768;2023-03-01T03:24:40;2.33;;;2.13;;
11986;SDS011;6053;51.382;6.768;2023-03-01T03:27:09;1.73;;;1.73;;
11986;SDS011;6053;51.382;6.768;2023-03-01T03:29:37;2.55;;;2.45;;
11986;SDS011;6053;51.382;6.768;2023-03-01T03:32:06;2.25;;;2.15;;
11986;SDS011;6053;51.382;6.768;2023-03-01T03:34:36;2.22;;;2.13;;
11986;SDS011;6053;51.382;6.768;2023-03-01T03:37:05;1.95;;;1.85;;
11986;SDS011;6053;51.382;6.768;2023-03-01T03:39:54;2.22;;;2.13;;
11986;SDS011;6053;51.382;6.768;2023-03-01T03:42:22;2.22;;;2.13;;
11986;SDS011;6053;51.382;6.768;2023-03-01T03:44:51;2.20;;;2.10;;
11986;SDS011;6053;51.382;6.768;2023-03-01T03:47:20;2.00;;;2.00;;
11986;SDS011;6053;51.382;6.768;2023-03-01T03:49:50;2.20;;;2.10;;
11986;SDS011;6053;51.382;6.768;2023-03-01T03:52:19;2.40;;;2.30;;
11986;SDS011;6053;51.382;6.768;2023-03-01T03:54:48;2.17;;;2.07;;
11986;SDS011;6053;51.382;6.768;2023-03-01T03:57:16;2.63;;;2.50;;
11986;SDS011;6053;51.382;6.768;2023-03-01T03:59:45;2.10;;;2.00;;
11986;SDS011;6053;51.382;6.768;2023-03-01T04:02:13;2.67;;;2.47;;
11986;SDS011;6053;51.382;6.768;2023-03-01T04:04:48;2.55;;;2.35;;
11986;SDS011;6053;51.382;6.768;2023-03-01T04:07:18;2.42;;;2.33;;
11986;SDS011;6053;51.382;6.768;2023-03-01T04:09:47;2.22;;;2.17;;
11986;SDS011;6053;51.382;6.768;2023-03-01T04:12:15;2.20;;;2.10;;
11986;SDS011;6053;51.382;6.768;2023-03-01T04:14:49;2.40;;;2.30;;
11986;SDS011;6053;51.382;6.768;2023-03-01T04:17:17;2.30;;;2.20;;
11986;SDS011;6053;51.382;6.768;2023-03-01T04:19:46;2.15;;;2.05;;
11986;SDS011;6053;51.382;6.768;2023-03-01T04:22:17;2.55;;;2.45;;
11986;SDS011;6053;51.382;6.768;2023-03-01T04:24:45;2.40;;;2.30;;
11986;SDS011;6053;51.382;6.768;2023-03-01T04:27:15;2.58;;;2.47;;
11986;SDS011;6053;51.382;6.768;2023-03-01T04:29:43;2.22;;;2.13;;
11986;SDS011;6053;51.382;6.768;2023-03-01T04:32:12;2.28;;;2.17;;
11986;SDS011;6053;51.382;6.768;2023-03-01T04:34:42;2.40;;;2.20;;
11986;SDS011;6053;51.382;6.768;2023-03-01T04:37:11;2.28;;;2.17;;
11986;SDS011;6053;51.382;6.768;2023-03-01T04:39:43;2.35;;;2.20;;
11986;SDS011;6053;51.382;6.768;2023-03-01T04:42:13;2.17;;;2.00;;
11986;SDS011;6053;51.382;6.768;2023-03-01T04:44:43;2.20;;;2.10;;
11986;SDS011;6053;51.382;6.768;2023-03-01T04:47:11;2.20;;;2.10;;
11986;SDS011;6053;51.382;6.768;2023-03-01T04:49:40;2.55;;;2.35;;
11986;SDS011;6053;51.382;6.768;2023-03-01T04:52:08;2.22;;;2.13;;
11986;SDS011;6053;51.382;6.768;2023-03-01T04:54:37;2.63;;;2.53;;
11986;SDS011;6053;51.382;6.768;2023-03-01T04:57:07;2.60;;;2.40;;
11986;SDS011;6053;51.382;6.768;2023-03-01T04:59:36;2.30;;;2.20;;
11986;SDS011;6053;51.382;6.768;2023-03-01T05:02:04;2.30;;;2.20;;
11986;SDS011;6053;51.382;6.768;2023-03-01T05:04:33;2.67;;;2.58;;
11986;SDS011;6053;51.382;6.768;2023-03-01T05:07:02;2.58;;;2.42;;
11986;SDS011;6053;51.382;6.768;2023-03-01T05:09:30;2.90;;;2.70;;
11986;SDS011;6053;51.382;6.768;2023-03-01T05:11:59;1.90;;;1.80;;
11986;SDS011;6053;51.382;6.768;2023-03-01T05:14:29;3.15;;;2.95;;
11986;SDS011;6053;51.382;6.768;2023-03-01T05:16:57;2.28;;;2.17;;
11986;SDS011;6053;51.382;6.768;2023-03-01T05:19:30;2.30;;;2.20;;
11986;SDS011;6053;51.382;6.768;2023-03-01T05:21:59;2.40;;;2.30;;
11986;SDS011;6053;51.382;6.768;2023-03-01T05:24:31;1.92;;;1.92;;
11986;SDS011;6053;51.382;6.768;2023-03-01T05:27:01;2.60;;;2.50;;
11986;SDS011;6053;51.382;6.768;2023-03-01T05:29:32;2.35;;;2.25;;
11986;SDS011;6053;51.382;6.768;2023-03-01T05:32:01;2.03;;;1.92;;
11986;SDS011;6053;51.382;6.768;2023-03-01T05:34:31;3.10;;;2.60;;
11986;SDS011;6053;51.382;6.768;2023-03-01T05:37:02;2.17;;;2.08;;
11986;SDS011;6053;51.382;6.768;2023-03-01T05:39:31;1.90;;;1.90;;
11986;SDS011;6053;51.382;6.768;2023-03-01T05:42:00;2.30;;;2.20;;
11986;SDS011;6053;51.382;6.768;2023-03-01T05:44:29;2.40;;;2.30;;
11986;SDS011;6053;51.382;6.768;2023-03-01T05:46:59;3.08;;;2.80;;
11986;SDS011;6053;51.382;6.768;2023-03-01T05:49:27;2.28;;;2.17;;
11986;SDS011;6053;51.382;6.768;2023-03-01T05:51:56;2.67;;;2.47;;
11986;SDS011;6053;51.382;6.768;2023-03-01T05:54:25;2.60;;;2.40;;
11986;SDS011;6053;51.382;6.768;2023-03-01T05:56:54;2.20;;;2.10;;
11986;SDS011;6053;51.382;6.768;2023-03-01T05:59:23;2.67;;;2.58;;
11986;SDS011;6053;51.382;6.768;2023-03-01T06:01:53;2.53;;;2.42;;
11986;SDS011;6053;51.382;6.768;2023-03-01T06:04:22;2.30;;;2.20;;
11986;SDS011;6053;51.382;6.768;2023-03-01T06:06:50;3.00;;;2.75;;
11986;SDS011;6053;51.382;6.768;2023-03-01T06:09:19;3.28;;;3.08;;
11986;SDS011;6053;51.382;6.768;2023-03-01T06:11:47;2.80;;;2.60;;
11986;SDS011;6053;51.382;6.768;2023-03-01T06:14:16;2.58;;;2.47;;
11986;SDS011;6053;51.382;6.768;2023-03-01T06:16:45;2.58;;;2.47;;
11986;SDS011;6053;51.382;6.768;2023-03-01T06:19:15;2.20;;;2.10;;
11986;SDS011;6053;51.382;6.768;2023-03-01T06:21:44;2.40;;;2.30;;
11986;SDS011;6053;51.382;6.768;2023-03-01T06:24:12;2.60;;;2.50;;
11986;SDS011;6053;51.382;6.768;2023-03-01T06:26:41;2.85;;;2.65;;
11986;SDS011;6053;51.382;6.768;2023-03-01T06:29:09;2.60;;;2.42;;
11986;SDS011;6053;51.382;6.768;2023-03-01T06:31:38;3.00;;;2.70;;
11986;SDS011;6053;51.382;6.768;2023-03-01T06:34:07;2.00;;;1.93;;
11986;SDS011;6053;51.382;6.768;2023-03-01T06:36:40;2.35;;;2.22;;
11986;SDS011;6053;51.382;6.768;2023-03-01T06:39:08;2.67;;;2.58;;
11986;SDS011;6053;51.382;6.768;2023-03-01T06:41:37;2.63;;;2.45;;
11986;SDS011;6053;51.382;6.768;2023-03-01T06:44:06;3.35;;;3.15;;
11986;SDS011;6053;51.382;6.768;2023-03-01T06:46:34;2.50;;;2.40;;
11986;SDS011;6053;51.382;6.768;2023-03-01T06:49:03;2.40;;;2.30;;
11986;SDS011;6053;51.382;6.768;2023-03-01T06:51:35;2.03;;;1.98;;
11986;SDS011;6053;51.382;6.768;2023-03-01T06:54:05;2.50;;;2.30;;
11986;SDS011;6053;51.382;6.768;2023-03-01T06:56:34;2.85;;;2.72;;
11986;SDS011;6053;51.382;6.768;2023-03-01T06:59:03;3.30;;;3.00;;
11986;SDS011;6053;51.382;6.768;2023-03-01T07:01:31;2.95;;;2.83;;
11986;SDS011;6053;51.382;6.768;2023-03-01T07:04:00;2.43;;;2.33;;
11986;SDS011;6053;51.382;6.768;2023-03-01T07:06:29;3.90;;;3.30;;
11986;SDS011;6053;51.382;6.768;2023-03-01T07:08:58;2.92;;;2.72;;
11986;SDS011;6053;51.382;6.768;2023-03-01T07:11:28;3.75;;;3.45;;
11986;SDS011;6053;51.382;6.768;2023-03-01T07:13:56;2.70;;;2.60;;
11986;SDS011;6053;51.382;6.768;2023-03-01T07:16:26;2.83;;;2.67;;
11986;SDS011;6053;51.382;6.768;2023-03-01T07:18:55;3.03;;;2.83;;
11986;SDS011;6053;51.382;6.768;2023-03-01T07:21:25;2.50;;;2.40;;
11986;SDS011;6053;51.382;6.768;2023-03-01T07:23:53;3.80;;;3.50;;
11986;SDS011;6053;51.382;6.768;2023-03-01T07:26:22;3.40;;;3.10;;
11986;SDS011;6053;51.382;6.768;2023-03-01T07:28:52;3.53;;;3.22;;
11986;SDS011;6053;51.382;6.768;2023-03-01T07:31:21;2.70;;;2.60;;
11986;SDS011;6053;51.382;6.768;2023-03-01T07:33:50;2.95;;;2.75;;
11986;SDS011;6053;51.382;6.768;2023-03-01T07:36:18;2.40;;;2.30;;
11986;SDS011;6053;51.382;6.768;2023-03-01T07:38:47;3.28;;;2.78;;
11986;SDS011;6053;51.382;6.768;2023-03-01T07:41:16;2.50;;;2.40;;
11986;SDS011;6053;51.382;6.768;2023-03-01T07:43:44;2.75;;;2.65;;
11986;SDS011;6053;51.382;6.768;2023-03-01T07:46:14;2.80;;;2.60;;
11986;SDS011;6053;51.382;6.768;2023-03-01T07:48:44;2.85;;;2.65;;
11986;SDS011;6053;51.382;6.768;2023-03-01T07:51:13;2.75;;;2.60;;
11986;SDS011;6053;51.382;6.768;2023-03-01T07:53:42;3.67;;;3.45;;
11986;SDS011;6053;51.382;6.768;2023-03-01T07:56:13;3.35;;;3.10;;
11986;SDS011;6053;51.382;6.768;2023-03-01T07:58:44;3.10;;;2.90;;
11986;SDS011;6053;51.382;6.768;2023-03-01T08:01:18;2.72;;;2.63;;
11986;SDS011;6053;51.382;6.768;2023-03-01T08:03:48;3.47;;;3.17;;
11986;SDS011;6053;51.382;6.768;2023-03-01T08:06:17;3.10;;;2.90;;
11986;SDS011;6053;51.382;6.768;2023-03-01T08:08:46;3.28;;;3.08;;
11986;SDS011;6053;51.382;6.768;2023-03-01T08:11:15;5.72;;;3.90;;
11986;SDS011;6053;51.382;6.768;2023-03-01T08:13:43;4.17;;;3.87;;
11986;SDS011;6053;51.382;6.768;2023-03-01T08:16:19;3.83;;;3.60;;
11986;SDS011;6053;51.382;6.768;2023-03-01T08:18:48;4.63;;;3.78;;
11986;SDS011;6053;51.382;6.768;2023-03-01T08:21:17;3.85;;;3.55;;
11986;SDS011;6053;51.382;6.768;2023-03-01T08:23:46;4.30;;;3.90;;
11986;SDS011;6053;51.382;6.768;2023-03-01T08:26:15;4.40;;;4.00;;
11986;SDS011;6053;51.382;6.768;2023-03-01T08:28:46;3.95;;;3.55;;
11986;SDS011;6053;51.382;6.768;2023-03-01T08:31:17;4.28;;;3.97;;
11986;SDS011;6053;51.382;6.768;2023-03-01T08:33:50;4.20;;;3.90;;
11986;SDS011;6053;51.382;6.768;2023-03-01T08:36:22;5.07;;;3.95;;
11986;SDS011;6053;51.382;6.768;2023-03-01T08:38:52;3.08;;;2.88;;
11986;SDS011;6053;51.382;6.768;2023-03-01T08:41:21;3.83;;;3.55;;
11986;SDS011;6053;51.382;6.768;2023-03-01T08:43:50;4.30;;;3.97;;
11986;SDS011;6053;51.382;6.768;2023-03-01T08:46:20;3.92;;;3.53;;
11986;SDS011;6053;51.382;6.768;2023-03-01T08:48:48;2.90;;;2.70;;
11986;SDS011;6053;51.382;6.768;2023-03-01T08:51:18;3.20;;;3.00;;
11986;SDS011;6053;51.382;6.768;2023-03-01T08:53:48;3.70;;;3.10;;
11986;SDS011;6053;51.382;6.768;2023-03-01T08:56:17;3.97;;;3.65;;
11986;SDS011;6053;51.382;6.768;2023-03-01T08:58:47;4.30;;;3.92;;
11986;SDS011;6053;51.382;6.768;2023-03-01T09:01:16;4.13;;;3.83;;
11986;SDS011;6053;51.382;6.768;2023-03-01T09:03:47;3.92;;;3.53;;
11986;SDS011;6053;51.382;6.768;2023-03-01T09:06:15;4.10;;;3.28;;
11986;SDS011;6053;51.382;6.768;2023-03-01T09:08:45;3.35;;;3.05;;
11986;SDS011;6053;51.382;6.768;2023-03-01T09:11:15;4.10;;;3.75;;
11986;SDS011;6053;51.382;6.768;2023-03-01T09:13:46;3.33;;;3.13;;
11986;SDS011;6053;51.382;6.768;2023-03-01T09:16:17;4.03;;;3.65;;
11986;SDS011;6053;51.382;6.768;2023-03-01T09:18:49;5.03;;;3.22;;
11986;SDS011;6053;51.382;6.768;2023-03-01T09:21:19;2.97;;;2.77;;
11986;SDS011;6053;51.382;6.768;2023-03-01T09:24:05;4.43;;;4.03;;
11986;SDS011;6053;51.382;6.768;2023-03-01T09:26:34;3.05;;;2.85;;
11986;SDS011;6053;51.382;6.768;2023-03-01T09:29:03;3.53;;;3.33;;
11986;SDS011;6053;51.382;6.768;2023-03-01T09:31:33;4.20;;;3.83;;
11986;SDS011;6053;51.382;6.768;2023-03-01T09:34:01;4.30;;;3.90;;
11986;SDS011;6053;51.382;6.768;2023-03-01T09:36:30;3.92;;;3.60;;
11986;SDS011;6053;51.382;6.768;2023-03-01T09:39:00;4.30;;;4.00;;
11986;SDS011;6053;51.382;6.768;2023-03-01T09:41:37;3.63;;;3.42;;
11986;SDS011;6053;51.382;6.768;2023-03-01T09:44:15;3.88;;;3.58;;
11986;SDS011;6053;51.382;6.768;2023-03-01T09:47:03;4.18;;;3.78;;
11986;SDS011;6053;51.382;6.768;2023-03-01T09:49:33;3.25;;;3.05;;
11986;SDS011;6053;51.382;6.768;2023-03-01T09:52:07;4.07;;;3.70;;
11986;SDS011;6053;51.382;6.768;2023-03-01T09:54:47;4.18;;;3.83;;
11986;SDS011;6053;51.382;6.768;2023-03-01T09:57:26;5.45;;;4.00;;
11986;SDS011;6053;51.382;6.768;2023-03-01T10:00:18;3.55;;;3.28;;
11986;SDS011;6053;51.382;6.768;2023-03-01T10:02:59;3.78;;;3.50;;
11986;SDS011;6053;51.382;6.768;2023-03-01T10:05:40;3.75;;;3.45;;
11986;SDS011;6053;51.382;6.768;2023-03-01T10:08:27;5.83;;;4.07;;
11986;SDS011;6053;51.382;6.768;2023-03-01T10:11:05;3.90;;;3.53;;
11986;SDS011;6053;51.382;6.768;2023-03-01T10:13:49;3.83;;;3.53;;
11986;SDS011;6053;51.382;6.768;2023-03-01T10:16:24;4.05;;;3.75;;
11986;SDS011;6053;51.382;6.768;2023-03-01T10:19:01;3.50;;;3.20;;
11986;SDS011;6053;51.382;6.768;2023-03-01T10:21:32;4.15;;;3.75;;
11986;SDS011;6053;51.382;6.768;2023-03-01T10:24:10;4.77;;;4.20;;
11986;SDS011;6053;51.382;6.768;2023-03-01T10:26:44;4.00;;;3.70;;
11986;SDS011;6053;51.382;6.768;2023-03-01T10:29:18;3.40;;;3.10;;
11986;SDS011;6053;51.382;6.768;2023-03-01T10:31:51;3.95;;;3.65;;
11986;SDS011;6053;51.382;6.768;2023-03-01T10:34:27;4.03;;;3.67;;
11986;SDS011;6053;51.382;6.768;2023-03-01T10:36:59;4.60;;;3.78;;
11986;SDS011;6053;51.382;6.768;2023-03-01T10:39:37;3.47;;;3.20;;
11986;SDS011;6053;51.382;6.768;2023-03-01T10:42:25;4.03;;;3.40;;
11986;SDS011;6053;51.382;6.768;2023-03-01T10:44:57;5.07;;;3.35;;
11986;SDS011;6053;51.382;6.768;2023-03-01T10:47:41;4.00;;;3.70;;
11986;SDS011;6053;51.382;6.768;2023-03-01T10:50:19;4.07;;;3.72;;
11986;SDS011;6053;51.382;6.768;2023-03-01T10:52:58;3.67;;;3.37;;
11986;SDS011;6053;51.382;6.768;2023-03-01T10:55:30;3.78;;;3.03;;
11986;SDS011;6053;51.382;6.768;2023-03-01T10:58:09;3.67;;;3.38;;
11986;SDS011;6053;51.382;6.768;2023-03-01T11:00:46;2.65;;;2.55;;
11986;SDS011;6053;51.382;6.768;2023-03-01T11:03:18;3.33;;;3.10;;
11986;SDS011;6053;51.382;6.768;2023-03-01T11:05:52;3.05;;;2.80;;
11986;SDS011;6053;51.382;6.768;2023-03-01T11:08:29;3.30;;;3.00;;
11986;SDS011;6053;51.382;6.768;2023-03-01T11:11:04;2.90;;;2.70;;
11986;SDS011;6053;51.382;6.768;2023-03-01T11:13:53;3.67;;;3.10;;
11986;SDS011;6053;51.382;6.768;2023-03-01T11:16:24;2.93;;;2.73;;
11986;SDS011;6053;51.382;6.768;2023-03-01T11:19:14;3.22;;;2.97;;
11986;SDS011;6053;51.382;6.768;2023-03-01T11:21:52;4.07;;;3.78;;
11986;SDS011;6053;51.382;6.768;2023-03-01T11:24:28;3.42;;;3.13;;
11986;SDS011;6053;51.382;6.768;2023-03-01T11:27:02;2.88;;;2.67;;
11986;SDS011;6053;51.382;6.768;2023-03-01T11:29:44;2.88;;;2.67;;
11986;SDS011;6053;51.382;6.768;2023-03-01T11:32:17;3.40;;;3.10;;
11986;SDS011;6053;51.382;6.768;2023-03-01T11:34:50;4.22;;;3.28;;
11986;SDS011;6053;51.382;6.768;2023-03-01T11:37:26;3.50;;;3.20;;
11986;SDS011;6053;51.382;6.768;2023-03-01T11:42:54;3.33;;;3.10;;
11986;SDS011;6053;51.382;6.768;2023-03-01T11:45:30;3.20;;;2.90;;
11986;SDS011;6053;51.382;6.768;2023-03-01T11:48:09;2.90;;;2.70;;
11986;SDS011;6053;51.382;6.768;2023-03-01T11:50:59;3.40;;;2.90;;
11986;SDS011;6053;51.382;6.768;2023-03-01T11:53:37;3.10;;;2.90;;
11986;SDS011;6053;51.382;6.768;2023-03-01T11:56:22;2.85;;;2.75;;
11986;SDS011;6053;51.382;6.768;2023-03-01T11:59:01;3.25;;;3.05;;
11986;SDS011;6053;51.382;6.768;2023-03-01T12:01:59;3.25;;;3.05;;
11986;SDS011;6053;51.382;6.768;2023-03-01T12:08:05;3.75;;;3.20;;
11986;SDS011;6053;51.382;6.768;2023-03-01T12:10:44;3.03;;;2.78;;
11986;SDS011;6053;51.382;6.768;2023-03-01T12:13:23;3.15;;;2.75;;
11986;SDS011;6053;51.382;6.768;2023-03-01T12:16:09;3.15;;;2.92;;
11986;SDS011;6053;51.382;6.768;2023-03-01T12:19:15;3.55;;;3.25;;
11986;SDS011;6053;51.382;6.768;2023-03-01T12:22:04;3.40;;;2.95;;
11986;SDS011;6053;51.382;6.768;2023-03-01T12:24:50;4.18;;;3.42;;
11986;SDS011;6053;51.382;6.768;2023-03-01T12:27:50;4.88;;;3.08;;
11986;SDS011;6053;51.382;6.768;2023-03-01T12:30:39;3.10;;;2.80;;
11986;SDS011;6053;51.382;6.768;2023-03-01T12:33:22;3.20;;;2.88;;
11986;SDS011;6053;51.382;6.768;2023-03-01T12:36:13;4.53;;;3.28;;
11986;SDS011;6053;51.382;6.768;2023-03-01T12:39:00;3.38;;;3.08;;
11986;SDS011;6053;51.382;6.768;2023-03-01T12:41:49;3.05;;;2.85;;
11986;SDS011;6053;51.382;6.768;2023-03-01T12:44:35;3.03;;;2.78;;
11986;SDS011;6053;51.382;6.768;2023-03-01T12:47:26;3.22;;;2.83;;
11986;SDS011;6053;51.382;6.768;2023-03-01T12:50:04;2.80;;;2.60;;
11986;SDS011;6053;51.382;6.768;2023-03-01T12:52:43;2.78;;;2.58;;
11986;SDS011;6053;51.382;6.768;2023-03-01T12:55:18;3.07;;;2.87;;
11986;SDS011;6053;51.382;6.768;2023-03-01T12:57:55;3.00;;;2.80;;
11986;SDS011;6053;51.382;6.768;2023-03-01T13:00:32;2.95;;;2.72;;
11986;SDS011;6053;51.382;6.768;2023-03-01T13:03:10;2.80;;;2.60;;
11986;SDS011;6053;51.382;6.768;2023-03-01T13:05:51;3.70;;;2.67;;
11986;SDS011;6053;51.382;6.768;2023-03-01T13:08:34;2.90;;;2.70;;
11986;SDS011;6053;51.382;6.768;2023-03-01T13:11:11;3.00;;;2.80;;
11986;SDS011;6053;51.382;6.768;2023-03-01T13:13:45;4.18;;;3.00;;
11986;SDS011;6053;51.382;6.768;2023-03-01T13:16:21;2.92;;;2.70;;
11986;SDS011;6053;51.382;6.768;2023-03-01T13:19:06;3.55;;;3.22;;
11986;SDS011;6053;51.382;6.768;2023-03-01T13:21:37;3.63;;;3.33;;
11986;SDS011;6053;51.382;6.768;2023-03-01T13:27:09;2.95;;;2.75;;
11986;SDS011;6053;51.382;6.768;2023-03-01T13:29:49;3.37;;;2.80;;
11986;SDS011;6053;51.382;6.768;2023-03-01T13:32:22;3.53;;;2.88;;
11986;SDS011;6053;51.382;6.768;2023-03-01T13:35:03;3.55;;;3.25;;
11986;SDS011;6053;51.382;6.768;2023-03-01T13:41:12;3.43;;;2.80;;
11986;SDS011;6053;51.382;6.768;2023-03-01T13:43:41;3.80;;;3.25;;
11986;SDS011;6053;51.382;6.768;2023-03-01T13:46:14;3.67;;;3.30;;
11986;SDS011;6053;51.382;6.768;2023-03-01T13:48:47;3.03;;;2.67;;
11986;SDS011;6053;51.382;6.768;2023-03-01T13:51:21;3.00;;;2.80;;
11986;SDS011;6053;51.382;6.768;2023-03-01T13:53:53;3.40;;;3.03;;
11986;SDS011;6053;51.382;6.768;2023-03-01T13:56:25;3.97;;;3.08;;
11986;SDS011;6053;51.382;6.768;2023-03-01T13:59:01;2.80;;;2.60;;
11986;SDS011;6053;51.382;6.768;2023-03-01T14:01:33;3.78;;;2.90;;
11986;SDS011;6053;51.382;6.768;2023-03-01T14:04:03;4.30;;;3.25;;
11986;SDS011;6053;51.382;6.768;2023-03-01T14:06:49;3.22;;;2.88;;
11986;SDS011;6053;51.382;6.768;2023-03-01T14:09:20;3.05;;;2.85;;
11986;SDS011;6053;51.382;6.768;2023-03-01T14:14:48;3.10;;;2.90;;
11986;SDS011;6053;51.382;6.768;2023-03-01T14:17:42;3.45;;;3.05;;
11986;SDS011;6053;51.382;6.768;2023-03-01T14:20:18;4.00;;;2.70;;
11986;SDS011;6053;51.382;6.768;2023-03-01T14:22:51;5.72;;;3.50;;
11986;SDS011;6053;51.382;6.768;2023-03-01T14:25:23;3.22;;;3.03;;
11986;SDS011;6053;51.382;6.768;2023-03-01T14:27:57;3.28;;;2.75;;
11986;SDS011;6053;51.382;6.768;2023-03-01T14:30:31;2.90;;;2.70;;
11986;SDS011;6053;51.382;6.768;2023-03-01T14:33:04;3.03;;;2.72;;
11986;SDS011;6053;51.382;6.768;2023-03-01T14:35:34;3.65;;;3.35;;
11986;SDS011;6053;51.382;6.768;2023-03-01T14:38:05;6.00;;;3.25;;
11986;SDS011;6053;51.382;6.768;2023-03-01T14:40:34;3.10;;;2.90;;
11986;SDS011;6053;51.382;6.768;2023-03-01T14:43:08;3.00;;;2.80;;
11986;SDS011;6053;51.382;6.768;2023-03-01T14:45:39;3.20;;;2.90;;
11986;SDS011;6053;51.382;6.768;2023-03-01T14:48:14;3.55;;;3.25;;
11986;SDS011;6053;51.382;6.768;2023-03-01T14:50:43;3.88;;;3.58;;
11986;SDS011;6053;51.382;6.768;2023-03-01T14:53:16;3.65;;;2.88;;
11986;SDS011;6053;51.382;6.768;2023-03-01T14:55:48;4.33;;;3.30;;
11986;SDS011;6053;51.382;6.768;2023-03-01T14:58:19;3.20;;;2.95;;
11986;SDS011;6053;51.382;6.768;2023-03-01T15:00:51;3.38;;;3.10;;
11986;SDS011;6053;51.382;6.768;2023-03-01T15:03:25;3.47;;;3.17;;
11986;SDS011;6053;51.382;6.768;2023-03-01T15:05:58;3.10;;;2.80;;
11986;SDS011;6053;51.382;6.768;2023-03-01T15:08:31;3.63;;;3.20;;
11986;SDS011;6053;51.382;6.768;2023-03-01T15:11:01;3.65;;;3.13;;
11986;SDS011;6053;51.382;6.768;2023-03-01T15:13:34;3.92;;;2.88;;
11986;SDS011;6053;51.382;6.768;2023-03-01T15:16:04;5.22;;;3.33;;
11986;SDS011;6053;51.382;6.768;2023-03-01T15:18:36;3.15;;;2.95;;
11986;SDS011;6053;51.382;6.768;2023-03-01T15:21:15;3.40;;;3.20;;
11986;SDS011;6053;51.382;6.768;2023-03-01T15:23:50;3.50;;;3.20;;
11986;SDS011;6053;51.382;6.768;2023-03-01T15:26:25;3.50;;;3.20;;
11986;SDS011;6053;51.382;6.768;2023-03-01T15:28:58;5.27;;;3.43;;
11986;SDS011;6053;51.382;6.768;2023-03-01T15:31:28;2.63;;;2.50;;
11986;SDS011;6053;51.382;6.768;2023-03-01T15:34:08;4.70;;;3.08;;
11986;SDS011;6053;51.382;6.768;2023-03-01T15:36:40;3.30;;;3.00;;
11986;SDS011;6053;51.382;6.768;2023-03-01T15:39:26;3.63;;;3.10;;
11986;SDS011;6053;51.382;6.768;2023-03-01T15:42:05;3.50;;;3.20;;
11986;SDS011;6053;51.382;6.768;2023-03-01T15:44:36;6.03;;;3.22;;
11986;SDS011;6053;51.382;6.768;2023-03-01T15:47:22;3.47;;;3.27;;
11986;SDS011;6053;51.382;6.768;2023-03-01T15:49:53;2.80;;;2.60;;
11986;SDS011;6053;51.382;6.768;2023-03-01T15:52:23;2.77;;;2.57;;
11986;SDS011;6053;51.382;6.768;2023-03-01T15:54:58;3.22;;;2.92;;